sensor_id;sensor_type;location;lat;lon;timestamp;temperature;humidity
21039;DHT22;10678;51.002;4.786;2023-07-29T00:01:30;21.80;99.90
21039;DHT22;10678;51.002;4.786;2023-07-29T00:03:56;21.80;99.90
21039;DHT22;10678;51.002;4.786;2023-07-29T00:06:22;21.80;99.90
21039;DHT22;10678;51.002;4.786;2023-07-29T00:08:47;21.80;99.90
21039;DHT22;10678;51.002;4.786;2023-07-29T00:11:13;21.80;99.90
21039;DHT22;10678;51.002;4.786;2023-07-29T00:13:38;21.80;99.90
21039;DHT22;10678;51.002;4.786;2023-07-29T00:16:04;21.70;99.90
21039;DHT22;10678;51.002;4.786;2023-07-29T00:18:33;21.70;99.90
21039;DHT22;10678;51.002;4.786;2023-07-29T00:20:59;21.70;99.90
21039;DHT22;10678;51.002;4.786;2023-07-29T00:23:24;21.70;99.90
21039;DHT22;10678;51.002;4.786;2023-07-29T00:25:50;21.70;99.90
21039;DHT22;10678;51.002;4.786;2023-07-29T00:28:16;21.70;99.90
21039;DHT22;10678;51.002;4.786;2023-07-29T00:30:41;21.70;99.90
21039;DHT22;10678;51.002;4.786;2023-07-29T00:33:07;21.60;99.90
21039;DHT22;10678;51.002;4.786;2023-07-29T00:35:33;21.60;99.90
21039;DHT22;10678;51.002;4.786;2023-07-29T00:37:59;21.60;99.90
21039;DHT22;10678;51.002;4.786;2023-07-29T00:40:27;21.60;99.90
21039;DHT22;10678;51.002;4.786;2023-07-29T00:42:53;21.50;99.90
21039;DHT22;10678;51.002;4.786;2023-07-29T00:45:19;21.50;99.90
21039;DHT22;10678;51.002;4.786;2023-07-29T00:47:45;21.50;99.90
21039;DHT22;10678;51.002;4.786;2023-07-29T00:50:12;21.40;99.90
21039;DHT22;10678;51.002;4.786;2023-07-29T00:52:38;21.30;99.90
21039;DHT22;10678;51.002;4.786;2023-07-29T00:55:05;21.20;99.90
21039;DHT22;10678;51.002;4.786;2023-07-29T00:57:31;21.10;99.90
21039;DHT22;10678;51.002;4.786;2023-07-29T00:59:57;21.00;99.90
21039;DHT22;10678;51.002;4.786;2023-07-29T01:02:23;21.00;99.90
21039;DHT22;10678;51.002;4.786;2023-07-29T01:04:54;20.90;99.90
21039;DHT22;10678;51.002;4.786;2023-07-29T01:07:49;20.80;99.90
21039;DHT22;10678;51.002;4.786;2023-07-29T01:10:35;20.80;99.90
21039;DHT22;10678;51.002;4.786;2023-07-29T01:13:09;20.80;99.90
21039;DHT22;10678;51.002;4.786;2023-07-29T01:15:49;20.80;99.90
21039;DHT22;10678;51.002;4.786;2023-07-29T01:18:26;20.70;99.90
21039;DHT22;10678;51.002;4.786;2023-07-29T01:20:59;20.70;99.90
21039;DHT22;10678;51.002;4.786;2023-07-29T01:23:33;20.60;99.90
21039;DHT22;10678;51.002;4.786;2023-07-29T01:25:59;20.60;99.90
21039;DHT22;10678;51.002;4.786;2023-07-29T01:28:25;20.50;99.90
21039;DHT22;10678;51.002;4.786;2023-07-29T01:31:09;20.50;99.90
21039;DHT22;10678;51.002;4.786;2023-07-29T01:33:48;20.50;99.90
21039;DHT22;10678;51.002;4.786;2023-07-29T01:36:21;20.50;99.90
21039;DHT22;10678;51.002;4.786;2023-07-29T01:38:48;20.50;99.90
21039;DHT22;10678;51.002;4.786;2023-07-29T01:41:16;20.40;99.90
21039;DHT22;10678;51.002;4.786;2023-07-29T01:43:42;20.40;99.90
21039;DHT22;10678;51.002;4.786;2023-07-29T01:46:15;20.30;99.90
21039;DHT22;10678;51.002;4.786;2023-07-29T01:48:41;20.40;99.90
21039;DHT22;10678;51.002;4.786;2023-07-29T01:51:07;20.40;99.90
21039;DHT22;10678;51.002;4.786;2023-07-29T01:53:33;20.40;99.90
21039;DHT22;10678;51.002;4.786;2023-07-29T01:55:58;20.40;99.90
21039;DHT22;10678;51.002;4.786;2023-07-29T01:58:25;20.40;99.90
21039;DHT22;10678;51.002;4.786;2023-07-29T02:00:50;20.40;99.90
21039;DHT22;10678;51.002;4.786;2023-07-29T02:03:16;20.40;99.90
21039;DHT22;10678;51.002;4.786;2023-07-29T02:05:42;20.30;99.90
21039;DHT22;10678;51.002;4.786;2023-07-29T02:08:09;20.30;99.90
21039;DHT22;10678;51.002;4.786;2023-07-29T02:10:35;20.30;99.90
21039;DHT22;10678;51.002;4.786;2023-07-29T02:13:01;20.30;99.90
21039;DHT22;10678;51.002;4.786;2023-07-29T02:15:27;20.30;99.90
21039;DHT22;10678;51.002;4.786;2023-07-29T02:17:53;20.30;99.90
21039;DHT22;10678;51.002;4.786;2023-07-29T02:20:18;20.30;99.90
21039;DHT22;10678;51.002;4.786;2023-07-29T02:22:44;20.30;99.90
21039;DHT22;10678;51.002;4.786;2023-07-29T02:25:10;20.30;99.90
21039;DHT22;10678;51.002;4.786;2023-07-29T02:27:35;20.30;99.90
21039;DHT22;10678;51.002;4.786;2023-07-29T02:30:01;20.20;99.90
21039;DHT22;10678;51.002;4.786;2023-07-29T02:32:27;20.20;99.90
21039;DHT22;10678;51.002;4.786;2023-07-29T02:34:53;20.10;99.90
21039;DHT22;10678;51.002;4.786;2023-07-29T02:37:19;20.20;99.90
21039;DHT22;10678;51.002;4.786;2023-07-29T02:39:45;20.20;99.90
21039;DHT22;10678;51.002;4.786;2023-07-29T02:42:11;20.20;99.90
21039;DHT22;10678;51.002;4.786;2023-07-29T02:44:36;20.20;99.90
21039;DHT22;10678;51.002;4.786;2023-07-29T02:47:02;20.20;99.90
21039;DHT22;10678;51.002;4.786;2023-07-29T02:49:27;20.20;99.90
21039;DHT22;10678;51.002;4.786;2023-07-29T02:51:53;20.20;99.90
21039;DHT22;10678;51.002;4.786;2023-07-29T02:54:19;20.10;99.90
21039;DHT22;10678;51.002;4.786;2023-07-29T02:56:44;20.10;99.90
21039;DHT22;10678;51.002;4.786;2023-07-29T02:59:10;20.10;99.90
21039;DHT22;10678;51.002;4.786;2023-07-29T03:01:35;20.00;99.90
21039;DHT22;10678;51.002;4.786;2023-07-29T03:04:01;20.00;99.90
21039;DHT22;10678;51.002;4.786;2023-07-29T03:06:27;20.00;99.90
21039;DHT22;10678;51.002;4.786;2023-07-29T03:08:52;20.00;99.90
21039;DHT22;10678;51.002;4.786;2023-07-29T03:11:18;20.00;99.90
21039;DHT22;10678;51.002;4.786;2023-07-29T03:13:43;20.00;99.90
21039;DHT22;10678;51.002;4.786;2023-07-29T03:16:10;19.90;99.90
21039;DHT22;10678;51.002;4.786;2023-07-29T03:18:37;19.90;99.90
21039;DHT22;10678;51.002;4.786;2023-07-29T03:21:03;19.90;99.90
21039;DHT22;10678;51.002;4.786;2023-07-29T03:23:30;19.90;99.90
21039;DHT22;10678;51.002;4.786;2023-07-29T03:25:56;19.90;99.90
21039;DHT22;10678;51.002;4.786;2023-07-29T03:28:28;19.90;99.90
21039;DHT22;10678;51.002;4.786;2023-07-29T03:30:54;19.90;99.90
21039;DHT22;10678;51.002;4.786;2023-07-29T03:33:20;19.80;99.90
21039;DHT22;10678;51.002;4.786;2023-07-29T03:35:45;19.80;99.90
21039;DHT22;10678;51.002;4.786;2023-07-29T03:38:11;19.80;99.90
21039;DHT22;10678;51.002;4.786;2023-07-29T03:40:41;19.80;99.90
21039;DHT22;10678;51.002;4.786;2023-07-29T03:43:07;19.80;99.90
21039;DHT22;10678;51.002;4.786;2023-07-29T03:45:35;19.80;99.90
21039;DHT22;10678;51.002;4.786;2023-07-29T03:48:00;19.80;99.90
21039;DHT22;10678;51.002;4.786;2023-07-29T03:50:26;19.70;99.90
21039;DHT22;10678;51.002;4.786;2023-07-29T03:52:52;19.70;99.90
21039;DHT22;10678;51.002;4.786;2023-07-29T03:55:18;19.70;99.90
21039;DHT22;10678;51.002;4.786;2023-07-29T03:57:44;19.70;99.90
21039;DHT22;10678;51.002;4.786;2023-07-29T04:00:10;19.60;99.90
21039;DHT22;10678;51.002;4.786;2023-07-29T04:02:36;19.70;99.90
21039;DHT22;10678;51.002;4.786;2023-07-29T04:05:05;19.70;99.90
21039;DHT22;10678;51.002;4.786;2023-07-29T04:07:34;19.70;99.90
21039;DHT22;10678;51.002;4.786;2023-07-29T04:10:00;19.60;99.90
21039;DHT22;10678;51.002;4.786;2023-07-29T04:12:26;19.60;99.90
21039;DHT22;10678;51.002;4.786;2023-07-29T04:14:51;19.60;99.90
21039;DHT22;10678;51.002;4.786;2023-07-29T04:17:17;19.60;99.90
21039;DHT22;10678;51.002;4.786;2023-07-29T04:19:43;19.60;99.90
21039;DHT22;10678;51.002;4.786;2023-07-29T04:22:08;19.60;99.90
21039;DHT22;10678;51.002;4.786;2023-07-29T04:24:34;19.60;99.90
21039;DHT22;10678;51.002;4.786;2023-07-29T04:26:59;19.60;99.90
21039;DHT22;10678;51.002;4.786;2023-07-29T04:29:25;19.60;99.90
21039;DHT22;10678;51.002;4.786;2023-07-29T04:31:51;19.50;99.90
21039;DHT22;10678;51.002;4.786;2023-07-29T04:34:17;19.60;99.90
21039;DHT22;10678;51.002;4.786;2023-07-29T04:36:43;19.50;99.90
21039;DHT22;10678;51.002;4.786;2023-07-29T04:39:09;19.50;99.90
21039;DHT22;10678;51.002;4.786;2023-07-29T04:41:34;19.50;99.90
21039;DHT22;10678;51.002;4.786;2023-07-29T04:44:00;19.40;99.90
21039;DHT22;10678;51.002;4.786;2023-07-29T04:46:26;19.50;99.90
21039;DHT22;10678;51.002;4.786;2023-07-29T04:48:51;19.50;99.90
21039;DHT22;10678;51.002;4.786;2023-07-29T04:51:17;19.40;99.90
21039;DHT22;10678;51.002;4.786;2023-07-29T04:53:43;19.40;99.90
21039;DHT22;10678;51.002;4.786;2023-07-29T04:56:08;19.40;99.90
21039;DHT22;10678;51.002;4.786;2023-07-29T04:58:34;19.40;99.90
21039;DHT22;10678;51.002;4.786;2023-07-29T05:01:01;19.40;99.90
21039;DHT22;10678;51.002;4.786;2023-07-29T05:03:27;19.40;99.90
21039;DHT22;10678;51.002;4.786;2023-07-29T05:05:53;19.50;99.90
21039;DHT22;10678;51.002;4.786;2023-07-29T05:08:21;19.50;99.90
21039;DHT22;10678;51.002;4.786;2023-07-29T05:10:49;19.50;99.90
21039;DHT22;10678;51.002;4.786;2023-07-29T05:13:15;19.60;99.90
21039;DHT22;10678;51.002;4.786;2023-07-29T05:15:41;19.60;99.90
21039;DHT22;10678;51.002;4.786;2023-07-29T05:18:07;19.60;99.90
21039;DHT22;10678;51.002;4.786;2023-07-29T05:20:32;19.70;99.90
21039;DHT22;10678;51.002;4.786;2023-07-29T05:22:58;19.70;99.90
21039;DHT22;10678;51.002;4.786;2023-07-29T05:25:23;19.60;99.90
21039;DHT22;10678;51.002;4.786;2023-07-29T05:27:49;19.70;99.90
21039;DHT22;10678;51.002;4.786;2023-07-29T05:30:14;19.70;99.90
21039;DHT22;10678;51.002;4.786;2023-07-29T05:32:40;19.80;99.90
21039;DHT22;10678;51.002;4.786;2023-07-29T05:35:06;19.80;99.90
21039;DHT22;10678;51.002;4.786;2023-07-29T05:37:32;19.90;99.90
21039;DHT22;10678;51.002;4.786;2023-07-29T05:39:57;20.00;99.90
21039;DHT22;10678;51.002;4.786;2023-07-29T05:42:23;20.10;99.90
21039;DHT22;10678;51.002;4.786;2023-07-29T05:44:48;20.10;99.90
21039;DHT22;10678;51.002;4.786;2023-07-29T05:47:14;20.20;99.90
21039;DHT22;10678;51.002;4.786;2023-07-29T05:49:40;20.20;99.90
21039;DHT22;10678;51.002;4.786;2023-07-29T05:52:06;20.20;99.90
21039;DHT22;10678;51.002;4.786;2023-07-29T05:54:31;20.20;99.90
21039;DHT22;10678;51.002;4.786;2023-07-29T05:56:57;20.20;99.90
21039;DHT22;10678;51.002;4.786;2023-07-29T05:59:22;20.10;99.90
21039;DHT22;10678;51.002;4.786;2023-07-29T06:01:48;20.20;99.90
21039;DHT22;10678;51.002;4.786;2023-07-29T06:04:13;20.30;99.90
21039;DHT22;10678;51.002;4.786;2023-07-29T06:06:39;20.40;99.90
21039;DHT22;10678;51.002;4.786;2023-07-29T06:09:05;20.50;99.90
21039;DHT22;10678;51.002;4.786;2023-07-29T06:11:30;20.70;99.90
21039;DHT22;10678;51.002;4.786;2023-07-29T06:13:56;20.80;99.90
21039;DHT22;10678;51.002;4.786;2023-07-29T06:16:21;20.90;99.90
21039;DHT22;10678;51.002;4.786;2023-07-29T06:18:47;21.00;99.90
21039;DHT22;10678;51.002;4.786;2023-07-29T06:21:13;21.00;99.90
21039;DHT22;10678;51.002;4.786;2023-07-29T06:23:43;21.10;99.90
21039;DHT22;10678;51.002;4.786;2023-07-29T06:26:08;21.00;99.90
21039;DHT22;10678;51.002;4.786;2023-07-29T06:28:34;21.10;99.90
21039;DHT22;10678;51.002;4.786;2023-07-29T06:31:00;21.10;99.90
21039;DHT22;10678;51.002;4.786;2023-07-29T06:33:25;21.10;99.90
21039;DHT22;10678;51.002;4.786;2023-07-29T06:35:51;21.00;99.90
21039;DHT22;10678;51.002;4.786;2023-07-29T06:38:16;21.10;99.90
21039;DHT22;10678;51.002;4.786;2023-07-29T06:40:50;21.20;99.90
21039;DHT22;10678;51.002;4.786;2023-07-29T06:43:16;21.30;99.90
21039;DHT22;10678;51.002;4.786;2023-07-29T06:45:42;21.30;99.90
21039;DHT22;10678;51.002;4.786;2023-07-29T06:48:07;21.30;99.90
21039;DHT22;10678;51.002;4.786;2023-07-29T06:50:33;21.30;99.90
21039;DHT22;10678;51.002;4.786;2023-07-29T06:52:59;21.30;99.90
21039;DHT22;10678;51.002;4.786;2023-07-29T06:55:24;21.30;99.90
21039;DHT22;10678;51.002;4.786;2023-07-29T06:57:50;21.30;99.90
21039;DHT22;10678;51.002;4.786;2023-07-29T07:00:16;21.30;99.90
21039;DHT22;10678;51.002;4.786;2023-07-29T07:02:41;21.30;99.90
21039;DHT22;10678;51.002;4.786;2023-07-29T07:05:07;21.50;99.90
21039;DHT22;10678;51.002;4.786;2023-07-29T07:07:33;21.60;99.90
21039;DHT22;10678;51.002;4.786;2023-07-29T07:09:58;21.70;99.90
21039;DHT22;10678;51.002;4.786;2023-07-29T07:12:24;21.70;99.90
21039;DHT22;10678;51.002;4.786;2023-07-29T07:14:50;21.70;99.90
21039;DHT22;10678;51.002;4.786;2023-07-29T07:17:15;21.90;99.90
21039;DHT22;10678;51.002;4.786;2023-07-29T07:19:41;22.00;99.90
21039;DHT22;10678;51.002;4.786;2023-07-29T07:22:06;22.00;99.90
21039;DHT22;10678;51.002;4.786;2023-07-29T07:24:32;22.10;99.90
21039;DHT22;10678;51.002;4.786;2023-07-29T07:26:58;22.20;99.90
21039;DHT22;10678;51.002;4.786;2023-07-29T07:29:23;22.20;99.90
21039;DHT22;10678;51.002;4.786;2023-07-29T07:31:53;22.30;99.90
21039;DHT22;10678;51.002;4.786;2023-07-29T07:34:19;22.30;99.90
21039;DHT22;10678;51.002;4.786;2023-07-29T07:36:45;22.30;99.90
21039;DHT22;10678;51.002;4.786;2023-07-29T07:39:10;22.40;99.90
21039;DHT22;10678;51.002;4.786;2023-07-29T07:41:36;22.40;99.90
21039;DHT22;10678;51.002;4.786;2023-07-29T07:44:02;22.50;99.90
21039;DHT22;10678;51.002;4.786;2023-07-29T07:46:28;22.40;99.90
21039;DHT22;10678;51.002;4.786;2023-07-29T07:48:54;22.20;99.90
21039;DHT22;10678;51.002;4.786;2023-07-29T07:51:19;22.10;99.90
21039;DHT22;10678;51.002;4.786;2023-07-29T07:53:45;22.20;99.90
21039;DHT22;10678;51.002;4.786;2023-07-29T07:56:11;22.10;99.90
21039;DHT22;10678;51.002;4.786;2023-07-29T07:58:37;22.10;99.90
21039;DHT22;10678;51.002;4.786;2023-07-29T08:01:07;22.10;99.90
21039;DHT22;10678;51.002;4.786;2023-07-29T08:03:37;22.10;99.90
21039;DHT22;10678;51.002;4.786;2023-07-29T08:06:02;22.00;99.90
21039;DHT22;10678;51.002;4.786;2023-07-29T08:08:28;22.00;99.90
21039;DHT22;10678;51.002;4.786;2023-07-29T08:10:56;22.20;99.90
21039;DHT22;10678;51.002;4.786;2023-07-29T08:13:25;22.40;99.90
21039;DHT22;10678;51.002;4.786;2023-07-29T08:15:52;22.80;99.90
21039;DHT22;10678;51.002;4.786;2023-07-29T08:18:18;23.20;99.90
21039;DHT22;10678;51.002;4.786;2023-07-29T08:20:53;23.30;99.90
21039;DHT22;10678;51.002;4.786;2023-07-29T08:23:20;23.40;99.90
21039;DHT22;10678;51.002;4.786;2023-07-29T08:25:55;23.60;99.90
21039;DHT22;10678;51.002;4.786;2023-07-29T08:28:22;23.70;99.90
21039;DHT22;10678;51.002;4.786;2023-07-29T08:30:47;23.70;99.90
21039;DHT22;10678;51.002;4.786;2023-07-29T08:33:13;23.80;99.90
21039;DHT22;10678;51.002;4.786;2023-07-29T08:35:39;23.80;99.90
21039;DHT22;10678;51.002;4.786;2023-07-29T08:38:04;23.80;99.90
21039;DHT22;10678;51.002;4.786;2023-07-29T08:40:31;24.00;99.90
21039;DHT22;10678;51.002;4.786;2023-07-29T08:43:03;24.40;99.90
21039;DHT22;10678;51.002;4.786;2023-07-29T08:45:34;24.90;99.90
21039;DHT22;10678;51.002;4.786;2023-07-29T08:48:02;25.20;99.90
21039;DHT22;10678;51.002;4.786;2023-07-29T08:50:32;25.60;99.90
21039;DHT22;10678;51.002;4.786;2023-07-29T08:52:59;26.40;99.90
21039;DHT22;10678;51.002;4.786;2023-07-29T08:55:25;26.80;99.90
21039;DHT22;10678;51.002;4.786;2023-07-29T08:57:51;27.00;99.90
21039;DHT22;10678;51.002;4.786;2023-07-29T09:00:17;27.20;99.90
21039;DHT22;10678;51.002;4.786;2023-07-29T09:02:42;27.30;99.90
21039;DHT22;10678;51.002;4.786;2023-07-29T09:05:08;27.10;99.90
21039;DHT22;10678;51.002;4.786;2023-07-29T09:07:34;26.90;99.90
21039;DHT22;10678;51.002;4.786;2023-07-29T09:10:01;26.90;99.90
21039;DHT22;10678;51.002;4.786;2023-07-29T09:12:27;27.00;99.90
21039;DHT22;10678;51.002;4.786;2023-07-29T09:14:52;27.20;99.90
21039;DHT22;10678;51.002;4.786;2023-07-29T09:17:20;27.90;99.90
21039;DHT22;10678;51.002;4.786;2023-07-29T09:19:48;28.00;99.90
21039;DHT22;10678;51.002;4.786;2023-07-29T09:22:18;28.00;99.90
21039;DHT22;10678;51.002;4.786;2023-07-29T09:24:45;28.30;99.90
21039;DHT22;10678;51.002;4.786;2023-07-29T09:27:26;28.80;99.90
21039;DHT22;10678;51.002;4.786;2023-07-29T09:29:53;29.00;99.90
21039;DHT22;10678;51.002;4.786;2023-07-29T09:32:20;29.20;99.90
21039;DHT22;10678;51.002;4.786;2023-07-29T09:34:46;28.90;99.90
21039;DHT22;10678;51.002;4.786;2023-07-29T09:37:21;28.80;99.90
21039;DHT22;10678;51.002;4.786;2023-07-29T09:39:48;28.90;99.90
21039;DHT22;10678;51.002;4.786;2023-07-29T09:42:21;29.10;99.90
21039;DHT22;10678;51.002;4.786;2023-07-29T09:44:48;28.80;99.90
21039;DHT22;10678;51.002;4.786;2023-07-29T09:47:24;28.70;99.90
21039;DHT22;10678;51.002;4.786;2023-07-29T09:49:51;28.60;99.90
21039;DHT22;10678;51.002;4.786;2023-07-29T09:52:21;28.60;99.90
21039;DHT22;10678;51.002;4.786;2023-07-29T09:54:47;28.50;99.90
21039;DHT22;10678;51.002;4.786;2023-07-29T09:57:14;28.10;99.90
21039;DHT22;10678;51.002;4.786;2023-07-29T09:59:41;27.70;99.90
21039;DHT22;10678;51.002;4.786;2023-07-29T10:02:14;27.30;99.90
21039;DHT22;10678;51.002;4.786;2023-07-29T10:04:45;27.10;99.90
21039;DHT22;10678;51.002;4.786;2023-07-29T10:07:11;27.00;99.90
21039;DHT22;10678;51.002;4.786;2023-07-29T10:09:40;27.00;99.90
21039;DHT22;10678;51.002;4.786;2023-07-29T10:12:07;26.80;99.90
21039;DHT22;10678;51.002;4.786;2023-07-29T10:14:33;26.50;99.90
21039;DHT22;10678;51.002;4.786;2023-07-29T10:17:00;26.30;99.90
21039;DHT22;10678;51.002;4.786;2023-07-29T10:19:26;26.00;99.90
21039;DHT22;10678;51.002;4.786;2023-07-29T10:21:56;25.70;99.90
21039;DHT22;10678;51.002;4.786;2023-07-29T10:24:25;25.70;99.90
21039;DHT22;10678;51.002;4.786;2023-07-29T10:26:58;26.00;99.90
21039;DHT22;10678;51.002;4.786;2023-07-29T10:29:24;26.80;99.90
21039;DHT22;10678;51.002;4.786;2023-07-29T10:31:54;27.70;99.90
21039;DHT22;10678;51.002;4.786;2023-07-29T10:34:23;28.40;99.90
21039;DHT22;10678;51.002;4.786;2023-07-29T10:36:49;29.30;99.90
21039;DHT22;10678;51.002;4.786;2023-07-29T10:39:15;29.70;99.90
21039;DHT22;10678;51.002;4.786;2023-07-29T10:42:01;29.90;99.90
21039;DHT22;10678;51.002;4.786;2023-07-29T10:47:11;29.80;99.90
21039;DHT22;10678;51.002;4.786;2023-07-29T10:49:40;29.50;99.90
21039;DHT22;10678;51.002;4.786;2023-07-29T10:52:06;29.70;99.90
21039;DHT22;10678;51.002;4.786;2023-07-29T10:54:47;30.40;99.90
21039;DHT22;10678;51.002;4.786;2023-07-29T10:57:14;31.10;99.90
21039;DHT22;10678;51.002;4.786;2023-07-29T10:59:41;31.40;99.90
21039;DHT22;10678;51.002;4.786;2023-07-29T11:02:18;31.00;99.90
21039;DHT22;10678;51.002;4.786;2023-07-29T11:04:49;30.50;99.90
21039;DHT22;10678;51.002;4.786;2023-07-29T11:09:41;29.00;99.90
21039;DHT22;10678;51.002;4.786;2023-07-29T11:12:33;28.30;99.90
21039;DHT22;10678;51.002;4.786;2023-07-29T11:17:31;26.80;99.90
21039;DHT22;10678;51.002;4.786;2023-07-29T11:20:00;26.20;99.90
21039;DHT22;10678;51.002;4.786;2023-07-29T11:22:26;25.60;99.90
21039;DHT22;10678;51.002;4.786;2023-07-29T11:24:51;25.40;99.90
21039;DHT22;10678;51.002;4.786;2023-07-29T11:27:17;25.20;99.90
21039;DHT22;10678;51.002;4.786;2023-07-29T11:29:43;24.90;99.90
21039;DHT22;10678;51.002;4.786;2023-07-29T11:32:09;25.10;99.90
21039;DHT22;10678;51.002;4.786;2023-07-29T11:34:35;25.30;99.90
21039;DHT22;10678;51.002;4.786;2023-07-29T11:37:01;25.30;99.90
21039;DHT22;10678;51.002;4.786;2023-07-29T11:39:26;25.20;99.90
21039;DHT22;10678;51.002;4.786;2023-07-29T11:41:52;25.20;99.90
21039;DHT22;10678;51.002;4.786;2023-07-29T11:44:18;25.00;99.90
21039;DHT22;10678;51.002;4.786;2023-07-29T11:46:44;24.90;99.90
21039;DHT22;10678;51.002;4.786;2023-07-29T11:49:10;24.90;99.90
21039;DHT22;10678;51.002;4.786;2023-07-29T11:51:36;24.90;99.90
21039;DHT22;10678;51.002;4.786;2023-07-29T11:54:02;25.10;99.90
21039;DHT22;10678;51.002;4.786;2023-07-29T11:56:29;25.60;99.90
21039;DHT22;10678;51.002;4.786;2023-07-29T11:58:55;26.30;99.90
21039;DHT22;10678;51.002;4.786;2023-07-29T12:01:22;27.40;99.90
21039;DHT22;10678;51.002;4.786;2023-07-29T12:03:49;28.70;99.90
21039;DHT22;10678;51.002;4.786;2023-07-29T12:06:15;29.30;99.90
21039;DHT22;10678;51.002;4.786;2023-07-29T12:08:42;29.20;99.90
21039;DHT22;10678;51.002;4.786;2023-07-29T12:11:08;29.00;99.90
21039;DHT22;10678;51.002;4.786;2023-07-29T12:13:36;28.90;99.90
21039;DHT22;10678;51.002;4.786;2023-07-29T12:16:02;29.00;99.90
21039;DHT22;10678;51.002;4.786;2023-07-29T12:18:32;29.40;99.90
21039;DHT22;10678;51.002;4.786;2023-07-29T12:20:58;29.50;99.90
21039;DHT22;10678;51.002;4.786;2023-07-29T12:23:25;29.00;99.90
21039;DHT22;10678;51.002;4.786;2023-07-29T12:25:58;28.70;99.90
21039;DHT22;10678;51.002;4.786;2023-07-29T12:28:25;28.00;99.90
21039;DHT22;10678;51.002;4.786;2023-07-29T12:30:54;27.50;99.90
21039;DHT22;10678;51.002;4.786;2023-07-29T12:33:36;27.00;99.90
21039;DHT22;10678;51.002;4.786;2023-07-29T12:36:04;26.60;99.90
21039;DHT22;10678;51.002;4.786;2023-07-29T12:38:30;26.20;99.90
21039;DHT22;10678;51.002;4.786;2023-07-29T12:40:56;26.00;99.90
21039;DHT22;10678;51.002;4.786;2023-07-29T12:43:22;25.70;99.90
21039;DHT22;10678;51.002;4.786;2023-07-29T12:45:51;25.30;99.90
21039;DHT22;10678;51.002;4.786;2023-07-29T12:48:17;24.90;99.90
21039;DHT22;10678;51.002;4.786;2023-07-29T12:50:43;24.70;99.90
21039;DHT22;10678;51.002;4.786;2023-07-29T12:53:09;24.40;99.90
21039;DHT22;10678;51.002;4.786;2023-07-29T12:55:38;24.00;99.90
21039;DHT22;10678;51.002;4.786;2023-07-29T12:58:04;23.60;99.90
21039;DHT22;10678;51.002;4.786;2023-07-29T13:00:30;23.50;99.90
21039;DHT22;10678;51.002;4.786;2023-07-29T13:02:56;23.70;99.90
21039;DHT22;10678;51.002;4.786;2023-07-29T13:05:21;24.40;99.90
21039;DHT22;10678;51.002;4.786;2023-07-29T13:07:47;25.40;99.90
21039;DHT22;10678;51.002;4.786;2023-07-29T13:10:13;26.30;99.90
21039;DHT22;10678;51.002;4.786;2023-07-29T13:12:39;27.20;99.90
21039;DHT22;10678;51.002;4.786;2023-07-29T13:15:05;27.60;99.90
21039;DHT22;10678;51.002;4.786;2023-07-29T13:17:32;27.80;99.90
21039;DHT22;10678;51.002;4.786;2023-07-29T13:19:57;27.50;99.90
21039;DHT22;10678;51.002;4.786;2023-07-29T13:22:23;27.30;99.90
21039;DHT22;10678;51.002;4.786;2023-07-29T13:24:48;27.20;99.90
21039;DHT22;10678;51.002;4.786;2023-07-29T13:27:14;27.20;99.90
21039;DHT22;10678;51.002;4.786;2023-07-29T13:29:40;27.50;99.90
21039;DHT22;10678;51.002;4.786;2023-07-29T13:32:06;27.90;99.90
21039;DHT22;10678;51.002;4.786;2023-07-29T13:34:32;27.90;99.90
21039;DHT22;10678;51.002;4.786;2023-07-29T13:36:57;28.00;99.90
21039;DHT22;10678;51.002;4.786;2023-07-29T13:39:23;28.10;99.90
21039;DHT22;10678;51.002;4.786;2023-07-29T13:41:48;28.50;99.90
21039;DHT22;10678;51.002;4.786;2023-07-29T13:44:14;28.80;99.90
21039;DHT22;10678;51.002;4.786;2023-07-29T13:46:40;29.20;99.90
21039;DHT22;10678;51.002;4.786;2023-07-29T13:49:05;29.50;99.90
21039;DHT22;10678;51.002;4.786;2023-07-29T13:51:31;29.40;99.90
21039;DHT22;10678;51.002;4.786;2023-07-29T13:53:56;29.00;99.90
21039;DHT22;10678;51.002;4.786;2023-07-29T13:56:22;28.60;99.90
21039;DHT22;10678;51.002;4.786;2023-07-29T13:58:48;28.40;99.90
21039;DHT22;10678;51.002;4.786;2023-07-29T14:01:13;28.20;99.90
21039;DHT22;10678;51.002;4.786;2023-07-29T14:03:39;27.90;99.90
21039;DHT22;10678;51.002;4.786;2023-07-29T14:06:05;27.70;99.90
21039;DHT22;10678;51.002;4.786;2023-07-29T14:08:30;27.50;99.90
21039;DHT22;10678;51.002;4.786;2023-07-29T14:10:56;27.60;99.90
21039;DHT22;10678;51.002;4.786;2023-07-29T14:13:21;27.70;99.90
21039;DHT22;10678;51.002;4.786;2023-07-29T14:15:47;28.00;99.90
21039;DHT22;10678;51.002;4.786;2023-07-29T14:18:13;28.10;99.90
21039;DHT22;10678;51.002;4.786;2023-07-29T14:20:38;28.10;99.90
21039;DHT22;10678;51.002;4.786;2023-07-29T14:23:04;27.80;99.90
21039;DHT22;10678;51.002;4.786;2023-07-29T14:25:30;27.50;99.90
21039;DHT22;10678;51.002;4.786;2023-07-29T14:27:55;27.10;99.90
21039;DHT22;10678;51.002;4.786;2023-07-29T14:30:21;26.90;99.90
21039;DHT22;10678;51.002;4.786;2023-07-29T14:32:48;26.80;99.90
21039;DHT22;10678;51.002;4.786;2023-07-29T14:35:14;26.80;99.90
21039;DHT22;10678;51.002;4.786;2023-07-29T14:37:39;26.70;99.90
21039;DHT22;10678;51.002;4.786;2023-07-29T14:40:06;26.60;99.90
21039;DHT22;10678;51.002;4.786;2023-07-29T14:42:32;26.40;99.90
21039;DHT22;10678;51.002;4.786;2023-07-29T14:44:58;26.30;99.90
21039;DHT22;10678;51.002;4.786;2023-07-29T14:47:23;26.00;99.90
21039;DHT22;10678;51.002;4.786;2023-07-29T14:49:49;25.90;99.90
21039;DHT22;10678;51.002;4.786;2023-07-29T14:52:14;25.70;99.90
21039;DHT22;10678;51.002;4.786;2023-07-29T14:54:40;25.50;99.90
21039;DHT22;10678;51.002;4.786;2023-07-29T14:57:07;25.60;99.90
21039;DHT22;10678;51.002;4.786;2023-07-29T14:59:32;25.60;99.90
21039;DHT22;10678;51.002;4.786;2023-07-29T15:01:58;25.70;99.90
21039;DHT22;10678;51.002;4.786;2023-07-29T15:04:24;25.70;99.90
21039;DHT22;10678;51.002;4.786;2023-07-29T15:06:50;25.70;99.90
21039;DHT22;10678;51.002;4.786;2023-07-29T15:09:15;25.70;99.90
21039;DHT22;10678;51.002;4.786;2023-07-29T15:11:41;25.60;99.90
21039;DHT22;10678;51.002;4.786;2023-07-29T15:14:06;25.60;99.90
21039;DHT22;10678;51.002;4.786;2023-07-29T15:16:32;25.50;99.90
21039;DHT22;10678;51.002;4.786;2023-07-29T15:19:01;25.60;99.90
21039;DHT22;10678;51.002;4.786;2023-07-29T15:21:27;25.70;99.90
21039;DHT22;10678;51.002;4.786;2023-07-29T15:23:53;25.60;99.90
21039;DHT22;10678;51.002;4.786;2023-07-29T15:26:18;25.40;99.90
21039;DHT22;10678;51.002;4.786;2023-07-29T15:28:44;25.40;99.90
21039;DHT22;10678;51.002;4.786;2023-07-29T15:31:09;25.30;99.90
21039;DHT22;10678;51.002;4.786;2023-07-29T15:33:37;25.30;99.90
21039;DHT22;10678;51.002;4.786;2023-07-29T15:36:03;25.30;99.90